createdAt,value
2017-09-27T00:00:34.727Z,25.47
2017-09-27T00:03:02.735Z,25.77
2017-09-27T00:05:31.342Z,29.23
2017-09-27T00:08:00.032Z,29.93
2017-09-27T00:10:27.901Z,34.67
2017-09-27T00:12:56.743Z,27.30
2017-09-27T00:15:24.638Z,34.77
2017-09-27T00:17:52.814Z,32.23
2017-09-27T00:20:20.579Z,32.97
2017-09-27T00:22:48.346Z,37.80
2017-09-27T00:25:16.318Z,37.63
2017-09-27T00:27:44.389Z,32.57
2017-09-27T00:30:12.442Z,35.70
2017-09-27T00:32:40.321Z,30.83
2017-09-27T00:35:08.384Z,29.23
2017-09-27T00:37:36.169Z,22.30
2017-09-27T00:40:04.103Z,32.33
2017-09-27T00:42:32.006Z,24.07
2017-09-27T00:44:59.968Z,25.50
2017-09-27T00:47:27.723Z,23.87
2017-09-27T00:49:55.636Z,24.93
2017-09-27T00:52:24.251Z,26.50
2017-09-27T00:54:52.134Z,24.00
2017-09-27T00:57:20.009Z,19.77
2017-09-27T00:59:47.885Z,20.67
2017-09-27T01:02:15.652Z,24.27
2017-09-27T01:04:43.502Z,24.37
2017-09-27T01:07:11.378Z,22.87
2017-09-27T01:09:39.262Z,25.53
2017-09-27T01:12:07.034Z,25.63
2017-09-27T01:14:35.678Z,26.77
2017-09-27T01:17:03.443Z,22.63
2017-09-27T01:19:32.231Z,21.23
2017-09-27T01:22:00.198Z,20.00
2017-09-27T01:24:28.083Z,22.97
2017-09-27T01:26:55.954Z,25.23
2017-09-27T01:29:24.003Z,22.30
2017-09-27T01:31:51.897Z,28.57
2017-09-27T01:34:19.661Z,21.53
2017-09-27T01:36:48.033Z,30.27
2017-09-27T01:39:15.891Z,29.87
2017-09-27T01:41:43.862Z,27.60
2017-09-27T01:44:11.833Z,23.97
2017-09-27T01:46:39.786Z,31.20
2017-09-27T01:49:07.566Z,25.60
2017-09-27T01:51:35.433Z,22.57
2017-09-27T01:54:03.278Z,24.27
2017-09-27T01:56:31.254Z,25.93
2017-09-27T01:58:59.241Z,26.13
2017-09-27T02:01:27.190Z,26.47
2017-09-27T02:03:54.987Z,26.40
2017-09-27T02:06:23.641Z,22.30
2017-09-27T02:08:51.389Z,20.77
2017-09-27T02:11:19.185Z,20.27
2017-09-27T02:13:47.090Z,24.97
2017-09-27T02:16:15.032Z,20.87
2017-09-27T02:18:42.882Z,22.63
2017-09-27T02:21:10.750Z,21.53
2017-09-27T02:23:38.723Z,19.00
2017-09-27T02:26:06.674Z,20.17
2017-09-27T02:28:34.559Z,21.60
2017-09-27T02:31:02.432Z,22.17
2017-09-27T02:33:30.176Z,23.47
2017-09-27T02:35:57.952Z,21.83
2017-09-27T02:38:25.920Z,22.23
2017-09-27T02:40:53.784Z,20.20
2017-09-27T02:43:21.560Z,17.07
2017-09-27T02:45:49.707Z,16.80
2017-09-27T02:48:17.582Z,17.30
2017-09-27T02:50:45.322Z,20.10
2017-09-27T02:53:13.122Z,23.63
2017-09-27T02:55:41.189Z,24.00
2017-09-27T02:58:09.156Z,28.20
2017-09-27T03:00:37.022Z,38.10
2017-09-27T03:03:05.201Z,35.43
2017-09-27T03:05:32.961Z,35.77
2017-09-27T03:08:00.835Z,42.03
2017-09-27T03:10:28.679Z,42.27
2017-09-27T03:12:56.507Z,46.83
2017-09-27T03:15:24.528Z,43.07
2017-09-27T03:17:52.400Z,37.03
2017-09-27T03:20:20.167Z,34.63
2017-09-27T03:22:48.046Z,40.67
2017-09-27T03:25:15.980Z,33.73
2017-09-27T03:27:43.862Z,31.70
2017-09-27T03:30:11.691Z,44.50
2017-09-27T03:32:39.589Z,32.10
2017-09-27T03:35:08.179Z,40.67
2017-09-27T03:37:35.962Z,38.80
2017-09-27T03:40:03.837Z,39.87
2017-09-27T03:42:32.344Z,30.50
2017-09-27T03:45:00.138Z,27.43
2017-09-27T03:47:28.931Z,37.13
2017-09-27T03:49:56.800Z,31.33
2017-09-27T03:52:24.571Z,36.90
2017-09-27T03:54:52.429Z,39.10
2017-09-27T03:57:20.162Z,26.07
2017-09-27T03:59:48.052Z,44.97
2017-09-27T04:02:15.921Z,40.70
2017-09-27T04:04:43.858Z,32.93
2017-09-27T04:07:11.804Z,33.67
2017-09-27T04:09:40.350Z,38.33
2017-09-27T04:12:08.308Z,37.20
2017-09-27T04:14:36.501Z,34.47
2017-09-27T04:17:04.451Z,35.50
2017-09-27T04:19:32.191Z,29.87
2017-09-27T04:22:00.003Z,41.53
2017-09-27T04:24:28.766Z,39.10
2017-09-27T04:26:56.656Z,43.53
2017-09-27T04:29:24.679Z,35.90
2017-09-27T04:31:52.797Z,31.03
2017-09-27T04:34:20.530Z,21.83
2017-09-27T04:36:48.571Z,21.03
2017-09-27T04:39:16.318Z,19.23
2017-09-27T04:41:45.353Z,16.83
2017-09-27T04:44:13.337Z,16.70
2017-09-27T04:46:41.144Z,16.50
2017-09-27T04:49:09.805Z,20.70
2017-09-27T04:51:37.662Z,17.80
2017-09-27T04:54:05.412Z,17.13
2017-09-27T04:56:33.419Z,18.80
2017-09-27T04:59:03.017Z,19.43
2017-09-27T05:01:30.991Z,19.47
2017-09-27T05:03:58.934Z,23.30
2017-09-27T05:06:26.803Z,28.60
2017-09-27T05:08:55.901Z,33.67
2017-09-27T05:11:23.779Z,37.13
2017-09-27T05:13:52.321Z,44.47
2017-09-27T05:16:20.332Z,38.73
2017-09-27T05:18:48.196Z,44.97
2017-09-27T05:21:16.276Z,40.30
2017-09-27T05:23:44.636Z,39.50
2017-09-27T05:26:12.781Z,37.63
2017-09-27T05:28:40.999Z,40.97
2017-09-27T05:31:08.785Z,42.67
2017-09-27T05:33:37.626Z,33.63
2017-09-27T05:36:05.521Z,30.50
2017-09-27T05:38:33.383Z,37.83
2017-09-27T05:41:01.438Z,37.13
2017-09-27T05:43:29.307Z,37.93
2017-09-27T05:45:57.604Z,27.30
2017-09-27T05:48:25.545Z,23.40
2017-09-27T05:50:53.341Z,23.50
2017-09-27T05:53:23.608Z,28.57
2017-09-27T05:55:51.499Z,24.27
2017-09-27T05:58:19.240Z,21.30
2017-09-27T06:00:47.262Z,25.60
2017-09-27T06:03:15.406Z,20.17
2017-09-27T06:05:43.277Z,17.70
2017-09-27T06:08:11.171Z,28.47
2017-09-27T06:10:40.028Z,18.63
2017-09-27T06:13:07.798Z,17.50
2017-09-27T06:15:35.670Z,23.33
2017-09-27T06:18:04.652Z,21.97
2017-09-27T06:20:32.438Z,22.73
2017-09-27T06:23:00.191Z,18.53
2017-09-27T06:25:28.580Z,18.33
2017-09-27T06:27:56.323Z,17.83
2017-09-27T06:30:25.247Z,15.63
2017-09-27T06:32:53.782Z,12.33
2017-09-27T06:35:22.570Z,13.93
2017-09-27T06:37:50.310Z,12.47
2017-09-27T06:40:20.035Z,23.40
2017-09-27T06:42:47.869Z,14.43
2017-09-27T06:45:16.405Z,15.00
2017-09-27T06:47:45.006Z,15.17
2017-09-27T06:50:12.887Z,15.70
2017-09-27T06:52:40.745Z,13.77
2017-09-27T06:55:08.587Z,16.83
2017-09-27T06:57:36.458Z,14.20
2017-09-27T07:00:04.231Z,13.33
2017-09-27T07:02:32.102Z,18.00
2017-09-27T07:04:59.976Z,12.03
2017-09-27T07:07:27.731Z,17.77
2017-09-27T07:09:55.497Z,11.83
2017-09-27T07:12:23.309Z,13.40
2017-09-27T07:14:51.091Z,14.73
2017-09-27T07:17:18.901Z,22.77
2017-09-27T07:19:46.665Z,24.17
2017-09-27T07:22:14.419Z,31.90
2017-09-27T07:24:42.186Z,26.67
2017-09-27T07:27:10.029Z,33.70
2017-09-27T07:29:37.935Z,29.50
2017-09-27T07:32:05.783Z,22.50
2017-09-27T07:34:33.556Z,31.63
2017-09-27T07:37:01.479Z,26.80
2017-09-27T07:39:29.288Z,29.77
2017-09-27T07:41:57.042Z,19.70
2017-09-27T07:44:24.771Z,17.67
2017-09-27T07:46:52.535Z,18.43
2017-09-27T07:49:20.286Z,18.13
2017-09-27T07:54:21.023Z,18.87
2017-09-27T07:56:49.597Z,13.40
2017-09-27T07:59:18.155Z,11.80
2017-09-27T08:01:45.944Z,13.20
2017-09-27T08:04:14.886Z,13.50
2017-09-27T08:06:42.641Z,16.57
2017-09-27T08:09:10.440Z,16.27
2017-09-27T08:11:38.170Z,17.30
2017-09-27T08:14:05.973Z,14.57
2017-09-27T08:16:33.722Z,20.07
2017-09-27T08:19:01.507Z,21.23
2017-09-27T08:21:29.327Z,25.20
2017-09-27T08:23:57.203Z,20.90
2017-09-27T08:26:25.710Z,18.30
2017-09-27T08:28:53.573Z,17.53
2017-09-27T08:31:21.421Z,20.20
2017-09-27T08:33:49.164Z,16.97
2017-09-27T08:36:16.923Z,19.80
2017-09-27T08:38:44.760Z,21.60
2017-09-27T08:41:13.319Z,18.47
2017-09-27T08:43:41.178Z,17.30
2017-09-27T08:46:09.135Z,18.90
2017-09-27T08:48:36.912Z,24.70
2017-09-27T08:51:05.992Z,17.30
2017-09-27T08:53:33.809Z,24.10
2017-09-27T08:56:02.494Z,16.07
2017-09-27T08:58:31.009Z,13.97
2017-09-27T09:00:58.910Z,18.20
2017-09-27T09:03:26.680Z,19.80
2017-09-27T09:05:54.524Z,15.67
2017-09-27T09:08:22.308Z,15.23
2017-09-27T09:10:50.178Z,18.00
2017-09-27T09:13:18.024Z,19.13
2017-09-27T09:15:45.804Z,18.37
2017-09-27T09:18:13.674Z,17.07
2017-09-27T09:20:41.535Z,15.77
2017-09-27T09:23:09.391Z,16.97
2017-09-27T09:25:37.268Z,16.93
2017-09-27T09:28:05.143Z,19.10
2017-09-27T09:30:34.437Z,16.07
2017-09-27T09:33:02.329Z,16.70
2017-09-27T09:35:31.107Z,14.13
2017-09-27T09:38:00.594Z,16.23
2017-09-27T09:40:28.467Z,13.77
2017-09-27T09:42:56.480Z,12.20
2017-09-27T09:45:24.295Z,15.80
2017-09-27T09:47:52.158Z,11.57
2017-09-27T09:50:20.023Z,12.00
2017-09-27T09:52:47.823Z,22.60
2017-09-27T09:55:16.475Z,14.93
2017-09-27T09:57:44.345Z,16.17
2017-09-27T10:00:12.081Z,15.80
2017-09-27T10:02:39.885Z,17.37
2017-09-27T10:05:08.237Z,23.90
2017-09-27T10:07:36.217Z,20.13
2017-09-27T10:10:04.872Z,25.10
2017-09-27T10:12:32.874Z,17.17
2017-09-27T10:15:00.636Z,23.53
2017-09-27T10:17:28.537Z,20.73
2017-09-27T10:19:57.173Z,23.13
2017-09-27T10:22:25.059Z,14.43
2017-09-27T10:24:52.916Z,14.13
2017-09-27T10:27:20.727Z,17.73
2017-09-27T10:29:49.888Z,18.23
2017-09-27T10:32:17.737Z,15.90
2017-09-27T10:34:45.500Z,11.40
2017-09-27T10:37:13.388Z,12.83
2017-09-27T10:39:42.050Z,13.27
2017-09-27T10:42:09.882Z,12.33
2017-09-27T10:44:37.806Z,15.17
2017-09-27T10:47:05.671Z,15.90
2017-09-27T10:49:33.535Z,14.33
2017-09-27T10:52:01.411Z,13.27
2017-09-27T10:54:29.271Z,13.90
2017-09-27T10:56:57.222Z,13.20
2017-09-27T10:59:25.932Z,14.33
2017-09-27T11:01:53.692Z,16.47
2017-09-27T11:04:21.675Z,16.37
2017-09-27T11:06:50.367Z,14.50
2017-09-27T11:09:19.215Z,13.37
2017-09-27T11:11:47.013Z,18.70
2017-09-27T11:14:15.718Z,13.20
2017-09-27T11:16:44.252Z,14.03
2017-09-27T11:19:13.772Z,16.20
2017-09-27T11:21:41.542Z,13.60
2017-09-27T11:24:09.493Z,19.93
2017-09-27T11:26:37.275Z,16.27
2017-09-27T11:29:05.136Z,14.17
2017-09-27T11:31:33.022Z,23.23
2017-09-27T11:34:01.549Z,11.23
2017-09-27T11:36:29.405Z,12.20
2017-09-27T11:38:57.300Z,21.83
2017-09-27T11:41:25.291Z,12.67
2017-09-27T11:43:53.100Z,15.47
2017-09-27T11:46:20.924Z,18.90
2017-09-27T11:48:48.786Z,20.83
2017-09-27T11:51:16.652Z,17.93
2017-09-27T11:53:44.708Z,19.50
2017-09-27T11:56:12.452Z,20.80
2017-09-27T11:58:40.364Z,18.80
2017-09-27T12:01:08.223Z,24.67
2017-09-27T12:03:35.999Z,20.00
2017-09-27T12:06:03.864Z,20.80
2017-09-27T12:08:31.713Z,28.13
2017-09-27T12:11:00.708Z,23.93
2017-09-27T12:13:28.578Z,23.00
2017-09-27T12:15:56.537Z,23.40
2017-09-27T12:18:24.546Z,23.30
2017-09-27T12:20:53.202Z,20.63
2017-09-27T12:23:21.845Z,28.40
2017-09-27T12:25:49.753Z,25.00
2017-09-27T12:28:17.708Z,27.27
2017-09-27T12:30:45.587Z,23.93
2017-09-27T12:33:13.465Z,26.90
2017-09-27T12:35:42.328Z,25.03
2017-09-27T12:38:10.130Z,27.73
2017-09-27T12:40:38.796Z,27.50
2017-09-27T12:43:06.551Z,27.13
2017-09-27T12:45:34.735Z,25.60
2017-09-27T12:48:02.919Z,23.33
2017-09-27T12:50:30.960Z,27.30
2017-09-27T12:52:58.742Z,29.07
2017-09-27T12:55:26.610Z,26.37
2017-09-27T12:57:54.455Z,32.63
2017-09-27T13:00:22.653Z,29.87
2017-09-27T13:02:50.411Z,30.10
2017-09-27T13:05:18.291Z,28.40
2017-09-27T13:07:46.225Z,31.77
2017-09-27T13:10:14.628Z,34.47
2017-09-27T13:12:42.476Z,48.73
2017-09-27T13:15:11.099Z,51.33
2017-09-27T13:17:39.661Z,44.03
2017-09-27T13:20:07.611Z,44.10
2017-09-27T13:22:35.991Z,43.47
2017-09-27T13:25:05.819Z,41.10
2017-09-27T13:27:34.408Z,41.50
2017-09-27T13:30:02.984Z,40.93
2017-09-27T13:32:30.816Z,45.13
2017-09-27T13:34:58.697Z,37.00
2017-09-27T13:37:26.447Z,31.20
2017-09-27T13:39:54.239Z,30.53
2017-09-27T13:42:23.128Z,34.20
2017-09-27T13:44:51.114Z,27.00
2017-09-27T13:47:22.341Z,24.93
2017-09-27T13:49:50.224Z,31.73
2017-09-27T13:52:18.186Z,32.03
2017-09-27T13:54:45.978Z,25.33
2017-09-27T13:57:14.652Z,22.50
2017-09-27T13:59:43.325Z,24.50
2017-09-27T14:02:11.198Z,21.03
2017-09-27T14:04:39.036Z,17.93
2017-09-27T14:07:06.800Z,19.80
2017-09-27T14:09:34.573Z,21.27
2017-09-27T14:12:02.354Z,22.93
2017-09-27T14:14:30.700Z,18.03
2017-09-27T14:16:58.705Z,14.20
2017-09-27T14:19:26.680Z,16.30
2017-09-27T14:21:55.955Z,8.83
2017-09-27T14:24:23.918Z,8.37
2017-09-27T14:26:51.715Z,6.27
2017-09-27T14:29:19.479Z,5.73
2017-09-27T14:31:47.318Z,8.77
2017-09-27T14:34:15.171Z,6.27
2017-09-27T14:36:43.044Z,8.53
2017-09-27T14:39:11.115Z,5.50
2017-09-27T14:41:38.878Z,5.97
2017-09-27T14:44:06.674Z,5.50
2017-09-27T14:46:35.877Z,5.77
2017-09-27T14:49:04.950Z,6.60
2017-09-27T14:51:34.260Z,5.40
2017-09-27T14:54:02.140Z,4.40
2017-09-27T14:56:31.024Z,4.60
2017-09-27T14:59:00.830Z,4.17
2017-09-27T15:01:28.595Z,3.43
2017-09-27T15:03:56.394Z,3.70
2017-09-27T15:06:24.266Z,5.33
2017-09-27T15:08:52.083Z,3.73
2017-09-27T15:11:19.968Z,4.90
2017-09-27T15:13:48.648Z,3.73
2017-09-27T15:16:16.539Z,3.37
2017-09-27T15:18:44.559Z,3.60
2017-09-27T15:21:12.360Z,3.20
2017-09-27T15:23:41.931Z,2.60
2017-09-27T15:26:09.819Z,3.10
2017-09-27T15:28:37.680Z,3.27
2017-09-27T15:31:05.637Z,3.17
2017-09-27T15:33:33.496Z,4.63
2017-09-27T15:36:01.235Z,3.50
2017-09-27T15:38:29.041Z,2.20
2017-09-27T15:40:56.906Z,2.83
2017-09-27T15:43:24.718Z,2.97
2017-09-27T15:45:52.789Z,3.57
2017-09-27T15:48:22.435Z,3.60
2017-09-27T15:50:50.213Z,6.60
2017-09-27T15:53:18.238Z,5.30
2017-09-27T15:55:46.056Z,5.43
2017-09-27T15:58:13.996Z,4.50
2017-09-27T16:00:41.871Z,3.40
2017-09-27T16:03:09.608Z,3.43
2017-09-27T16:05:37.394Z,4.40
2017-09-27T16:08:05.177Z,5.80
2017-09-27T16:10:32.905Z,5.60
2017-09-27T16:13:00.706Z,5.87
2017-09-27T16:15:28.516Z,6.43
2017-09-27T16:17:56.303Z,4.80
2017-09-27T16:20:24.076Z,10.40
2017-09-27T16:22:55.660Z,4.70
2017-09-27T16:25:23.531Z,14.03
2017-09-27T16:27:51.275Z,6.17
2017-09-27T16:30:20.872Z,6.27
2017-09-27T16:32:48.745Z,6.90
2017-09-27T16:35:16.919Z,6.13
2017-09-27T16:37:44.801Z,6.97
2017-09-27T16:40:12.679Z,8.20
2017-09-27T16:42:40.620Z,7.83
2017-09-27T16:45:08.409Z,6.00
2017-09-27T16:47:36.178Z,7.93
2017-09-27T16:50:04.116Z,7.27
2017-09-27T16:52:31.906Z,9.70
2017-09-27T16:54:59.777Z,8.53
2017-09-27T16:57:27.636Z,7.40
2017-09-27T16:59:55.582Z,8.97
2017-09-27T17:02:23.661Z,8.50
2017-09-27T17:04:51.491Z,8.83
2017-09-27T17:07:19.386Z,12.57
2017-09-27T17:09:48.142Z,8.53
2017-09-27T17:12:15.877Z,7.93
2017-09-27T17:14:43.907Z,7.90
2017-09-27T17:17:11.775Z,8.80
2017-09-27T17:19:39.566Z,14.90
2017-09-27T17:22:07.426Z,10.10
2017-09-27T17:24:36.095Z,7.90
2017-09-27T17:27:03.988Z,9.33
2017-09-27T17:29:32.695Z,14.03
2017-09-27T17:32:00.613Z,11.73
2017-09-27T17:34:28.604Z,14.90
2017-09-27T17:36:56.656Z,11.37
2017-09-27T17:39:24.728Z,14.73
2017-09-27T17:41:53.018Z,17.00
2017-09-27T17:44:20.786Z,15.17
2017-09-27T17:46:48.733Z,12.73
2017-09-27T17:49:16.529Z,16.27
2017-09-27T17:51:45.181Z,18.93
2017-09-27T17:54:13.157Z,17.23
2017-09-27T17:56:41.037Z,19.00
2017-09-27T17:59:08.906Z,26.33
2017-09-27T18:01:36.673Z,31.77
2017-09-27T18:04:08.124Z,25.63
2017-09-27T18:06:41.699Z,25.43
2017-09-27T18:09:15.300Z,19.23
2017-09-27T18:15:09.401Z,17.50
2017-09-27T18:17:37.815Z,15.07
2017-09-27T18:20:05.671Z,27.30
2017-09-27T18:22:33.613Z,20.40
2017-09-27T18:25:01.584Z,49.37
2017-09-27T18:27:29.474Z,24.50
2017-09-27T18:29:58.769Z,15.27
2017-09-27T18:32:26.872Z,19.80
2017-09-27T18:34:55.641Z,12.80
2017-09-27T18:37:23.492Z,90.50
2017-09-27T18:39:51.440Z,37.80
2017-09-27T18:42:19.313Z,27.47
2017-09-27T18:44:47.207Z,20.97
2017-09-27T18:47:15.088Z,21.20
2017-09-27T18:49:43.769Z,16.13
2017-09-27T18:52:12.431Z,19.67
2017-09-27T18:54:40.299Z,16.50
2017-09-27T18:57:08.167Z,15.47
2017-09-27T18:59:36.115Z,23.13
2017-09-27T19:02:04.118Z,19.60
2017-09-27T19:04:32.054Z,21.37
2017-09-27T19:06:59.917Z,23.47
2017-09-27T19:09:28.014Z,21.37
2017-09-27T19:11:56.166Z,22.47
2017-09-27T19:14:24.778Z,25.90
2017-09-27T19:16:53.612Z,25.67
2017-09-27T19:19:21.588Z,27.33
2017-09-27T19:21:49.371Z,27.33
2017-09-27T19:24:17.177Z,24.63
2017-09-27T19:26:45.836Z,31.00
2017-09-27T19:29:13.716Z,59.87
2017-09-27T19:31:41.674Z,44.27
2017-09-27T19:34:09.666Z,76.50
2017-09-27T19:36:38.359Z,18.50
2017-09-27T19:39:07.104Z,14.83
2017-09-27T19:41:35.099Z,19.00
2017-09-27T19:44:02.868Z,19.80
2017-09-27T19:46:30.829Z,12.63
2017-09-27T19:49:00.021Z,24.20
2017-09-27T19:51:28.292Z,20.40
2017-09-27T19:53:56.142Z,18.50
2017-09-27T19:56:24.009Z,24.33
2017-09-27T19:58:52.694Z,23.03
2017-09-27T20:01:20.777Z,20.03
2017-09-27T20:03:49.343Z,14.70
2017-09-27T20:06:17.124Z,20.60
2017-09-27T20:08:44.907Z,12.07
2017-09-27T20:11:12.945Z,12.40
2017-09-27T20:13:40.922Z,13.40
2017-09-27T20:16:08.704Z,16.50
2017-09-27T20:18:36.754Z,12.77
2017-09-27T20:21:04.722Z,15.43
2017-09-27T20:23:32.622Z,14.60
2017-09-27T20:26:00.495Z,18.93
2017-09-27T20:28:29.172Z,20.57
2017-09-27T20:30:58.676Z,16.23
2017-09-27T20:33:26.740Z,19.17
2017-09-27T20:35:54.798Z,19.23
2017-09-27T20:38:22.671Z,12.17
2017-09-27T20:40:50.621Z,17.23
2017-09-27T20:43:18.603Z,11.30
2017-09-27T20:45:46.587Z,11.10
2017-09-27T20:48:14.438Z,14.40
2017-09-27T20:50:42.309Z,15.70
2017-09-27T20:53:10.276Z,16.80
2017-09-27T20:55:38.159Z,15.33
2017-09-27T20:58:05.942Z,11.37
2017-09-27T21:00:34.608Z,11.43
2017-09-27T21:03:02.470Z,20.87
2017-09-27T21:05:30.339Z,11.80
2017-09-27T21:07:58.380Z,14.73
2017-09-27T21:10:26.266Z,19.20
2017-09-27T21:12:54.114Z,12.47
2017-09-27T21:15:21.981Z,24.40
2017-09-27T21:17:49.831Z,21.10
2017-09-27T21:20:17.716Z,10.27
2017-09-27T21:22:45.579Z,19.33
2017-09-27T21:25:14.264Z,12.80
2017-09-27T21:27:42.439Z,11.63
2017-09-27T21:30:10.546Z,14.23
2017-09-27T21:32:38.480Z,13.47
2017-09-27T21:35:06.345Z,13.60
2017-09-27T21:37:34.199Z,14.53
2017-09-27T21:40:01.992Z,24.60
2017-09-27T21:42:29.839Z,52.53
2017-09-27T21:44:57.607Z,10.53
2017-09-27T21:47:25.575Z,10.50
2017-09-27T21:49:53.342Z,10.37
2017-09-27T21:52:21.104Z,11.50
2017-09-27T21:54:48.880Z,8.40
2017-09-27T21:57:16.747Z,9.00
2017-09-27T21:59:44.513Z,9.13
2017-09-27T22:02:12.389Z,12.87
2017-09-27T22:04:40.253Z,10.83
2017-09-27T22:07:08.218Z,11.90
2017-09-27T22:09:36.792Z,8.03
2017-09-27T22:12:04.686Z,14.57
2017-09-27T22:14:33.026Z,7.80
2017-09-27T22:17:00.906Z,9.90
2017-09-27T22:19:28.713Z,11.17
2017-09-27T22:21:57.294Z,8.27
2017-09-27T22:24:25.926Z,8.17
2017-09-27T22:26:53.668Z,8.67
2017-09-27T22:29:21.552Z,9.10
2017-09-27T22:31:49.318Z,10.20
2017-09-27T22:34:17.099Z,15.90
2017-09-27T22:36:45.052Z,16.70
2017-09-27T22:39:12.922Z,12.20
2017-09-27T22:41:40.818Z,11.53
2017-09-27T22:44:08.679Z,11.53
2017-09-27T22:46:36.638Z,15.93
2017-09-27T22:49:04.523Z,17.00
2017-09-27T22:51:32.508Z,19.33
2017-09-27T22:54:00.329Z,14.50
2017-09-27T22:56:28.319Z,21.43
2017-09-27T22:58:56.700Z,13.83
2017-09-27T23:01:26.188Z,17.90
2017-09-27T23:03:54.040Z,15.20
2017-09-27T23:06:21.934Z,13.73
2017-09-27T23:08:50.649Z,27.43
2017-09-27T23:11:18.579Z,12.20
2017-09-27T23:13:47.451Z,16.67
2017-09-27T23:16:15.196Z,17.00
2017-09-27T23:18:43.201Z,10.50
2017-09-27T23:21:12.558Z,13.90
2017-09-27T23:23:43.138Z,13.83
2017-09-27T23:26:10.946Z,14.67
2017-09-27T23:28:38.921Z,16.43
2017-09-27T23:31:07.482Z,14.50
2017-09-27T23:33:36.226Z,20.33
2017-09-27T23:36:04.159Z,14.17
2017-09-27T23:38:32.009Z,22.20
2017-09-27T23:41:00.545Z,13.87
2017-09-27T23:43:28.422Z,18.30
2017-09-27T23:45:56.290Z,19.50
2017-09-27T23:48:24.141Z,18.00
2017-09-27T23:50:52.874Z,16.73
2017-09-27T23:53:21.506Z,17.47
2017-09-27T23:55:49.293Z,16.70
2017-09-27T23:58:17.550Z,16.40
